sensor_id;sensor_type;location;lat;lon;timestamp;temperature;humidity
14006;DHT22;7078;51.542;7.314;2023-08-08T00:01:00;14.30;99.90
14006;DHT22;7078;51.542;7.314;2023-08-08T00:03:26;14.30;99.90
14006;DHT22;7078;51.542;7.314;2023-08-08T00:05:52;14.30;99.90
14006;DHT22;7078;51.542;7.314;2023-08-08T00:08:18;14.30;99.90
14006;DHT22;7078;51.542;7.314;2023-08-08T00:10:43;14.30;99.90
14006;DHT22;7078;51.542;7.314;2023-08-08T00:13:09;14.40;99.90
14006;DHT22;7078;51.542;7.314;2023-08-08T00:15:34;14.40;99.90
14006;DHT22;7078;51.542;7.314;2023-08-08T00:18:00;14.40;99.90
14006;DHT22;7078;51.542;7.314;2023-08-08T00:20:26;14.40;99.90
14006;DHT22;7078;51.542;7.314;2023-08-08T00:22:51;14.50;99.90
14006;DHT22;7078;51.542;7.314;2023-08-08T00:25:17;14.50;99.90
14006;DHT22;7078;51.542;7.314;2023-08-08T00:27:43;14.70;99.90
14006;DHT22;7078;51.542;7.314;2023-08-08T00:30:10;14.50;99.90
14006;DHT22;7078;51.542;7.314;2023-08-08T00:32:36;14.50;99.90
14006;DHT22;7078;51.542;7.314;2023-08-08T00:35:02;14.60;99.90
14006;DHT22;7078;51.542;7.314;2023-08-08T00:37:27;14.60;99.90
14006;DHT22;7078;51.542;7.314;2023-08-08T00:39:53;14.60;99.90
14006;DHT22;7078;51.542;7.314;2023-08-08T00:42:18;14.70;99.90
14006;DHT22;7078;51.542;7.314;2023-08-08T00:44:44;14.60;99.90
14006;DHT22;7078;51.542;7.314;2023-08-08T00:47:10;14.70;99.90
14006;DHT22;7078;51.542;7.314;2023-08-08T00:49:36;14.70;99.90
14006;DHT22;7078;51.542;7.314;2023-08-08T00:52:03;14.70;99.90
14006;DHT22;7078;51.542;7.314;2023-08-08T00:54:28;14.70;99.90
14006;DHT22;7078;51.542;7.314;2023-08-08T00:56:55;14.70;99.90
14006;DHT22;7078;51.542;7.314;2023-08-08T00:59:20;14.70;99.90
14006;DHT22;7078;51.542;7.314;2023-08-08T01:01:46;14.70;99.90
14006;DHT22;7078;51.542;7.314;2023-08-08T01:04:12;14.70;99.90
14006;DHT22;7078;51.542;7.314;2023-08-08T01:06:55;14.70;99.90
14006;DHT22;7078;51.542;7.314;2023-08-08T01:09:48;14.70;99.90
14006;DHT22;7078;51.542;7.314;2023-08-08T01:12:16;14.60;99.90
14006;DHT22;7078;51.542;7.314;2023-08-08T01:14:43;14.60;99.90
14006;DHT22;7078;51.542;7.314;2023-08-08T01:17:10;14.60;99.90
14006;DHT22;7078;51.542;7.314;2023-08-08T01:19:37;14.60;99.90
14006;DHT22;7078;51.542;7.314;2023-08-08T01:22:06;14.60;99.90
14006;DHT22;7078;51.542;7.314;2023-08-08T01:24:33;14.60;99.90
14006;DHT22;7078;51.542;7.314;2023-08-08T01:27:03;14.60;99.90
14006;DHT22;7078;51.542;7.314;2023-08-08T01:29:29;14.60;99.90
14006;DHT22;7078;51.542;7.314;2023-08-08T01:31:55;14.60;99.90
14006;DHT22;7078;51.542;7.314;2023-08-08T01:34:21;14.60;99.90
14006;DHT22;7078;51.542;7.314;2023-08-08T01:39:22;14.50;99.90
14006;DHT22;7078;51.542;7.314;2023-08-08T01:41:50;14.50;99.90
14006;DHT22;7078;51.542;7.314;2023-08-08T01:44:18;14.50;99.90
14006;DHT22;7078;51.542;7.314;2023-08-08T01:46:45;14.50;99.90
14006;DHT22;7078;51.542;7.314;2023-08-08T01:49:10;14.50;99.90
14006;DHT22;7078;51.542;7.314;2023-08-08T01:51:36;14.50;99.90
14006;DHT22;7078;51.542;7.314;2023-08-08T01:54:01;14.50;99.90
14006;DHT22;7078;51.542;7.314;2023-08-08T01:56:28;14.50;99.90
14006;DHT22;7078;51.542;7.314;2023-08-08T01:58:53;14.40;99.90
14006;DHT22;7078;51.542;7.314;2023-08-08T02:01:19;14.40;99.90
14006;DHT22;7078;51.542;7.314;2023-08-08T02:03:45;14.40;99.90
14006;DHT22;7078;51.542;7.314;2023-08-08T02:06:10;14.30;99.90
14006;DHT22;7078;51.542;7.314;2023-08-08T02:08:36;14.30;99.90
14006;DHT22;7078;51.542;7.314;2023-08-08T02:11:01;14.30;99.90
14006;DHT22;7078;51.542;7.314;2023-08-08T02:13:27;14.20;99.90
14006;DHT22;7078;51.542;7.314;2023-08-08T02:15:52;14.20;99.90
14006;DHT22;7078;51.542;7.314;2023-08-08T02:18:18;14.20;99.90
14006;DHT22;7078;51.542;7.314;2023-08-08T02:20:44;14.20;99.90
14006;DHT22;7078;51.542;7.314;2023-08-08T02:23:09;14.20;99.90
14006;DHT22;7078;51.542;7.314;2023-08-08T02:25:35;14.20;99.90
14006;DHT22;7078;51.542;7.314;2023-08-08T02:28:00;14.20;99.90
14006;DHT22;7078;51.542;7.314;2023-08-08T02:30:26;14.20;99.90
14006;DHT22;7078;51.542;7.314;2023-08-08T02:32:51;14.20;99.90
14006;DHT22;7078;51.542;7.314;2023-08-08T02:35:17;14.20;99.90
14006;DHT22;7078;51.542;7.314;2023-08-08T02:37:42;14.20;99.90
14006;DHT22;7078;51.542;7.314;2023-08-08T02:40:08;14.20;99.90
14006;DHT22;7078;51.542;7.314;2023-08-08T02:42:35;14.20;99.90
14006;DHT22;7078;51.542;7.314;2023-08-08T02:45:00;14.20;99.90
14006;DHT22;7078;51.542;7.314;2023-08-08T02:47:26;14.20;99.90
14006;DHT22;7078;51.542;7.314;2023-08-08T02:49:51;14.20;99.90
14006;DHT22;7078;51.542;7.314;2023-08-08T02:52:17;14.20;99.90
14006;DHT22;7078;51.542;7.314;2023-08-08T02:54:42;14.20;99.90
14006;DHT22;7078;51.542;7.314;2023-08-08T02:57:08;14.20;99.90
14006;DHT22;7078;51.542;7.314;2023-08-08T02:59:36;14.20;99.90
14006;DHT22;7078;51.542;7.314;2023-08-08T03:02:02;14.20;99.90
14006;DHT22;7078;51.542;7.314;2023-08-08T03:04:29;14.10;99.90
14006;DHT22;7078;51.542;7.314;2023-08-08T03:06:54;14.10;99.90
14006;DHT22;7078;51.542;7.314;2023-08-08T03:09:20;14.10;99.90
14006;DHT22;7078;51.542;7.314;2023-08-08T03:11:45;14.10;99.90
14006;DHT22;7078;51.542;7.314;2023-08-08T03:14:11;14.10;99.90
14006;DHT22;7078;51.542;7.314;2023-08-08T03:16:36;14.10;99.90
14006;DHT22;7078;51.542;7.314;2023-08-08T03:19:02;14.10;99.90
14006;DHT22;7078;51.542;7.314;2023-08-08T03:21:28;14.10;99.90
14006;DHT22;7078;51.542;7.314;2023-08-08T03:23:54;14.10;99.90
14006;DHT22;7078;51.542;7.314;2023-08-08T03:26:19;14.00;99.90
14006;DHT22;7078;51.542;7.314;2023-08-08T03:28:45;14.00;99.90
14006;DHT22;7078;51.542;7.314;2023-08-08T03:31:10;14.00;99.90
14006;DHT22;7078;51.542;7.314;2023-08-08T03:33:36;14.00;99.90
14006;DHT22;7078;51.542;7.314;2023-08-08T03:36:01;14.00;99.90
14006;DHT22;7078;51.542;7.314;2023-08-08T03:38:27;14.00;99.90
14006;DHT22;7078;51.542;7.314;2023-08-08T03:40:52;14.00;99.90
14006;DHT22;7078;51.542;7.314;2023-08-08T03:43:18;13.90;99.90
14006;DHT22;7078;51.542;7.314;2023-08-08T03:45:44;13.90;99.90
14006;DHT22;7078;51.542;7.314;2023-08-08T03:48:10;13.80;99.90
14006;DHT22;7078;51.542;7.314;2023-08-08T03:50:35;13.80;99.90
14006;DHT22;7078;51.542;7.314;2023-08-08T03:53:01;13.80;99.90
14006;DHT22;7078;51.542;7.314;2023-08-08T03:55:26;13.80;99.90
14006;DHT22;7078;51.542;7.314;2023-08-08T03:57:52;13.80;99.90
14006;DHT22;7078;51.542;7.314;2023-08-08T04:00:18;13.80;99.90
14006;DHT22;7078;51.542;7.314;2023-08-08T04:02:43;13.80;99.90
14006;DHT22;7078;51.542;7.314;2023-08-08T04:05:09;13.70;99.90
14006;DHT22;7078;51.542;7.314;2023-08-08T04:07:34;13.70;99.90
14006;DHT22;7078;51.542;7.314;2023-08-08T04:10:00;13.70;99.90
14006;DHT22;7078;51.542;7.314;2023-08-08T04:12:26;13.60;99.90
14006;DHT22;7078;51.542;7.314;2023-08-08T04:14:51;13.60;99.90
14006;DHT22;7078;51.542;7.314;2023-08-08T04:17:17;13.60;99.90
14006;DHT22;7078;51.542;7.314;2023-08-08T04:19:43;13.60;99.90
14006;DHT22;7078;51.542;7.314;2023-08-08T04:22:08;13.50;99.90
14006;DHT22;7078;51.542;7.314;2023-08-08T04:24:34;13.50;99.90
14006;DHT22;7078;51.542;7.314;2023-08-08T04:26:59;13.50;99.90
14006;DHT22;7078;51.542;7.314;2023-08-08T04:29:25;13.50;99.90
14006;DHT22;7078;51.542;7.314;2023-08-08T04:31:50;13.50;99.90
14006;DHT22;7078;51.542;7.314;2023-08-08T04:34:16;13.50;99.90
14006;DHT22;7078;51.542;7.314;2023-08-08T04:36:42;13.50;99.90
14006;DHT22;7078;51.542;7.314;2023-08-08T04:39:08;13.50;99.90
14006;DHT22;7078;51.542;7.314;2023-08-08T04:41:33;13.50;99.90
14006;DHT22;7078;51.542;7.314;2023-08-08T04:43:59;13.50;99.90
14006;DHT22;7078;51.542;7.314;2023-08-08T04:46:24;13.50;99.90
14006;DHT22;7078;51.542;7.314;2023-08-08T04:48:50;13.50;99.90
14006;DHT22;7078;51.542;7.314;2023-08-08T04:51:16;13.50;99.90
14006;DHT22;7078;51.542;7.314;2023-08-08T04:53:41;13.50;99.90
14006;DHT22;7078;51.542;7.314;2023-08-08T04:56:07;13.50;99.90
14006;DHT22;7078;51.542;7.314;2023-08-08T04:58:33;13.50;99.90
14006;DHT22;7078;51.542;7.314;2023-08-08T05:00:58;13.50;99.90
14006;DHT22;7078;51.542;7.314;2023-08-08T05:03:24;13.50;99.90
14006;DHT22;7078;51.542;7.314;2023-08-08T05:05:49;13.60;99.90
14006;DHT22;7078;51.542;7.314;2023-08-08T05:08:15;13.60;99.90
14006;DHT22;7078;51.542;7.314;2023-08-08T05:10:41;13.60;99.90
14006;DHT22;7078;51.542;7.314;2023-08-08T05:13:06;13.60;99.90
14006;DHT22;7078;51.542;7.314;2023-08-08T05:15:32;13.70;99.90
14006;DHT22;7078;51.542;7.314;2023-08-08T05:17:57;13.70;99.90
14006;DHT22;7078;51.542;7.314;2023-08-08T05:20:24;13.70;99.90
14006;DHT22;7078;51.542;7.314;2023-08-08T05:22:50;13.70;99.90
14006;DHT22;7078;51.542;7.314;2023-08-08T05:25:16;13.70;99.90
14006;DHT22;7078;51.542;7.314;2023-08-08T05:27:42;13.60;99.90
14006;DHT22;7078;51.542;7.314;2023-08-08T05:30:07;13.80;99.90
14006;DHT22;7078;51.542;7.314;2023-08-08T05:32:33;13.80;99.90
14006;DHT22;7078;51.542;7.314;2023-08-08T05:34:59;13.80;99.90
14006;DHT22;7078;51.542;7.314;2023-08-08T05:37:26;13.80;99.90
14006;DHT22;7078;51.542;7.314;2023-08-08T05:39:51;13.90;99.90
14006;DHT22;7078;51.542;7.314;2023-08-08T05:42:17;13.90;99.90
14006;DHT22;7078;51.542;7.314;2023-08-08T05:44:43;14.00;99.90
14006;DHT22;7078;51.542;7.314;2023-08-08T05:47:09;14.00;99.90
14006;DHT22;7078;51.542;7.314;2023-08-08T05:49:35;14.00;99.90
14006;DHT22;7078;51.542;7.314;2023-08-08T05:52:01;14.10;99.90
14006;DHT22;7078;51.542;7.314;2023-08-08T05:54:27;14.10;99.90
14006;DHT22;7078;51.542;7.314;2023-08-08T05:56:53;14.10;99.90
14006;DHT22;7078;51.542;7.314;2023-08-08T05:59:19;14.10;99.90
14006;DHT22;7078;51.542;7.314;2023-08-08T06:01:45;14.10;99.90
14006;DHT22;7078;51.542;7.314;2023-08-08T06:04:11;14.10;99.90
14006;DHT22;7078;51.542;7.314;2023-08-08T06:06:37;14.10;99.90
14006;DHT22;7078;51.542;7.314;2023-08-08T06:09:03;14.20;99.90
14006;DHT22;7078;51.542;7.314;2023-08-08T06:11:28;14.20;99.90
14006;DHT22;7078;51.542;7.314;2023-08-08T06:13:54;14.20;99.90
14006;DHT22;7078;51.542;7.314;2023-08-08T06:16:20;14.30;99.90
14006;DHT22;7078;51.542;7.314;2023-08-08T06:18:46;14.30;99.90
14006;DHT22;7078;51.542;7.314;2023-08-08T06:21:12;14.30;99.90
14006;DHT22;7078;51.542;7.314;2023-08-08T06:23:37;14.30;99.90
14006;DHT22;7078;51.542;7.314;2023-08-08T06:26:03;14.40;99.90
14006;DHT22;7078;51.542;7.314;2023-08-08T06:28:29;14.50;99.90
14006;DHT22;7078;51.542;7.314;2023-08-08T06:30:56;14.50;99.90
14006;DHT22;7078;51.542;7.314;2023-08-08T06:33:21;14.50;99.90
14006;DHT22;7078;51.542;7.314;2023-08-08T06:35:47;14.60;99.90
14006;DHT22;7078;51.542;7.314;2023-08-08T06:38:12;14.70;99.90
14006;DHT22;7078;51.542;7.314;2023-08-08T06:40:38;14.70;99.90
14006;DHT22;7078;51.542;7.314;2023-08-08T06:43:04;14.70;99.90
14006;DHT22;7078;51.542;7.314;2023-08-08T06:45:29;14.70;99.90
14006;DHT22;7078;51.542;7.314;2023-08-08T06:47:55;14.70;99.90
14006;DHT22;7078;51.542;7.314;2023-08-08T06:50:20;14.70;99.90
14006;DHT22;7078;51.542;7.314;2023-08-08T06:52:46;14.70;99.90
14006;DHT22;7078;51.542;7.314;2023-08-08T06:55:11;14.80;99.90
14006;DHT22;7078;51.542;7.314;2023-08-08T06:57:37;14.90;99.90
14006;DHT22;7078;51.542;7.314;2023-08-08T07:00:03;14.90;99.90
14006;DHT22;7078;51.542;7.314;2023-08-08T07:02:33;15.00;99.90
14006;DHT22;7078;51.542;7.314;2023-08-08T07:04:59;15.00;99.90
14006;DHT22;7078;51.542;7.314;2023-08-08T07:07:24;15.00;99.90
14006;DHT22;7078;51.542;7.314;2023-08-08T07:09:50;15.00;99.90
14006;DHT22;7078;51.542;7.314;2023-08-08T07:12:16;15.00;99.90
14006;DHT22;7078;51.542;7.314;2023-08-08T07:14:41;15.00;99.90
14006;DHT22;7078;51.542;7.314;2023-08-08T07:17:07;15.00;99.90
14006;DHT22;7078;51.542;7.314;2023-08-08T07:19:32;15.00;99.90
14006;DHT22;7078;51.542;7.314;2023-08-08T07:21:58;15.10;99.90
14006;DHT22;7078;51.542;7.314;2023-08-08T07:24:23;15.20;99.90
14006;DHT22;7078;51.542;7.314;2023-08-08T07:26:57;15.30;99.90
14006;DHT22;7078;51.542;7.314;2023-08-08T07:29:23;15.50;99.90
14006;DHT22;7078;51.542;7.314;2023-08-08T07:31:48;15.60;99.90
14006;DHT22;7078;51.542;7.314;2023-08-08T07:34:14;15.60;99.90
14006;DHT22;7078;51.542;7.314;2023-08-08T07:36:39;15.50;99.90
14006;DHT22;7078;51.542;7.314;2023-08-08T07:39:05;15.50;99.90
14006;DHT22;7078;51.542;7.314;2023-08-08T07:41:31;15.50;99.90
14006;DHT22;7078;51.542;7.314;2023-08-08T07:43:56;15.60;99.90
14006;DHT22;7078;51.542;7.314;2023-08-08T07:46:22;15.60;99.90
14006;DHT22;7078;51.542;7.314;2023-08-08T07:48:48;15.70;99.90
14006;DHT22;7078;51.542;7.314;2023-08-08T07:51:13;15.90;99.90
14006;DHT22;7078;51.542;7.314;2023-08-08T07:53:39;16.00;99.90
14006;DHT22;7078;51.542;7.314;2023-08-08T07:56:04;16.30;99.90
14006;DHT22;7078;51.542;7.314;2023-08-08T07:58:32;16.30;99.90
14006;DHT22;7078;51.542;7.314;2023-08-08T08:00:57;16.40;99.90
14006;DHT22;7078;51.542;7.314;2023-08-08T08:03:25;16.60;99.90
14006;DHT22;7078;51.542;7.314;2023-08-08T08:05:51;16.70;99.90
14006;DHT22;7078;51.542;7.314;2023-08-08T08:08:16;16.90;99.90
14006;DHT22;7078;51.542;7.314;2023-08-08T08:10:42;16.90;99.90
14006;DHT22;7078;51.542;7.314;2023-08-08T08:13:08;16.90;99.90
14006;DHT22;7078;51.542;7.314;2023-08-08T08:15:35;16.90;99.90
14006;DHT22;7078;51.542;7.314;2023-08-08T08:18:01;16.90;99.90
14006;DHT22;7078;51.542;7.314;2023-08-08T08:20:27;16.90;99.90
14006;DHT22;7078;51.542;7.314;2023-08-08T08:22:52;17.00;99.90
14006;DHT22;7078;51.542;7.314;2023-08-08T08:25:18;17.20;99.90
14006;DHT22;7078;51.542;7.314;2023-08-08T08:27:43;17.40;99.90
14006;DHT22;7078;51.542;7.314;2023-08-08T08:30:09;17.70;99.90
14006;DHT22;7078;51.542;7.314;2023-08-08T08:32:36;17.80;99.90
14006;DHT22;7078;51.542;7.314;2023-08-08T08:35:03;17.80;99.90
14006;DHT22;7078;51.542;7.314;2023-08-08T08:37:32;17.80;99.90
14006;DHT22;7078;51.542;7.314;2023-08-08T08:39:57;18.00;99.90
14006;DHT22;7078;51.542;7.314;2023-08-08T08:42:23;18.10;99.90
14006;DHT22;7078;51.542;7.314;2023-08-08T08:44:49;18.10;99.90
14006;DHT22;7078;51.542;7.314;2023-08-08T08:47:19;18.00;99.90
14006;DHT22;7078;51.542;7.314;2023-08-08T08:49:45;18.00;99.90
14006;DHT22;7078;51.542;7.314;2023-08-08T08:52:12;18.10;99.90
14006;DHT22;7078;51.542;7.314;2023-08-08T08:54:37;17.90;99.90
14006;DHT22;7078;51.542;7.314;2023-08-08T08:57:04;17.70;99.90
14006;DHT22;7078;51.542;7.314;2023-08-08T08:59:29;17.70;99.90
14006;DHT22;7078;51.542;7.314;2023-08-08T09:01:56;17.70;99.90
14006;DHT22;7078;51.542;7.314;2023-08-08T09:04:22;17.70;99.90
14006;DHT22;7078;51.542;7.314;2023-08-08T09:06:50;17.90;99.90
14006;DHT22;7078;51.542;7.314;2023-08-08T09:09:16;18.00;99.90
14006;DHT22;7078;51.542;7.314;2023-08-08T09:11:44;18.00;99.90
14006;DHT22;7078;51.542;7.314;2023-08-08T09:14:23;17.90;99.90
14006;DHT22;7078;51.542;7.314;2023-08-08T09:16:49;18.00;99.90
14006;DHT22;7078;51.542;7.314;2023-08-08T09:19:16;18.20;99.90
14006;DHT22;7078;51.542;7.314;2023-08-08T09:21:43;18.30;99.90
14006;DHT22;7078;51.542;7.314;2023-08-08T09:24:09;18.50;99.90
14006;DHT22;7078;51.542;7.314;2023-08-08T09:26:35;18.40;99.90
14006;DHT22;7078;51.542;7.314;2023-08-08T09:29:04;18.30;99.90
14006;DHT22;7078;51.542;7.314;2023-08-08T09:31:30;18.20;99.90
14006;DHT22;7078;51.542;7.314;2023-08-08T09:33:59;17.90;99.90
14006;DHT22;7078;51.542;7.314;2023-08-08T09:36:25;18.00;99.90
14006;DHT22;7078;51.542;7.314;2023-08-08T09:38:54;18.10;99.90
14006;DHT22;7078;51.542;7.314;2023-08-08T09:41:23;18.10;99.90
14006;DHT22;7078;51.542;7.314;2023-08-08T09:43:50;18.10;99.90
14006;DHT22;7078;51.542;7.314;2023-08-08T09:46:19;18.00;99.90
14006;DHT22;7078;51.542;7.314;2023-08-08T09:48:45;17.70;99.90
14006;DHT22;7078;51.542;7.314;2023-08-08T09:51:12;17.70;99.90
14006;DHT22;7078;51.542;7.314;2023-08-08T09:53:39;17.60;99.90
14006;DHT22;7078;51.542;7.314;2023-08-08T09:56:05;17.70;99.90
14006;DHT22;7078;51.542;7.314;2023-08-08T09:58:31;17.80;99.90
14006;DHT22;7078;51.542;7.314;2023-08-08T10:00:57;18.00;99.90
14006;DHT22;7078;51.542;7.314;2023-08-08T10:03:23;18.00;99.90
14006;DHT22;7078;51.542;7.314;2023-08-08T10:05:49;18.00;99.90
14006;DHT22;7078;51.542;7.314;2023-08-08T10:08:15;17.80;99.90
14006;DHT22;7078;51.542;7.314;2023-08-08T10:10:43;17.70;99.90
14006;DHT22;7078;51.542;7.314;2023-08-08T10:13:10;17.60;99.90
14006;DHT22;7078;51.542;7.314;2023-08-08T10:15:39;17.50;99.90
14006;DHT22;7078;51.542;7.314;2023-08-08T10:18:06;17.50;99.90
14006;DHT22;7078;51.542;7.314;2023-08-08T10:20:33;17.60;99.90
14006;DHT22;7078;51.542;7.314;2023-08-08T10:23:02;17.50;99.90
14006;DHT22;7078;51.542;7.314;2023-08-08T10:25:30;17.50;99.90
14006;DHT22;7078;51.542;7.314;2023-08-08T10:28:03;17.40;99.90
14006;DHT22;7078;51.542;7.314;2023-08-08T10:30:30;17.10;99.90
14006;DHT22;7078;51.542;7.314;2023-08-08T10:33:06;17.00;99.90
14006;DHT22;7078;51.542;7.314;2023-08-08T10:35:40;16.90;99.90
14006;DHT22;7078;51.542;7.314;2023-08-08T10:38:08;16.80;99.90
14006;DHT22;7078;51.542;7.314;2023-08-08T10:40:35;16.80;99.90
14006;DHT22;7078;51.542;7.314;2023-08-08T10:43:10;16.80;99.90
14006;DHT22;7078;51.542;7.314;2023-08-08T10:45:36;16.90;99.90
14006;DHT22;7078;51.542;7.314;2023-08-08T10:48:08;16.80;99.90
14006;DHT22;7078;51.542;7.314;2023-08-08T10:50:39;16.90;99.90
14006;DHT22;7078;51.542;7.314;2023-08-08T10:53:08;16.90;99.90
14006;DHT22;7078;51.542;7.314;2023-08-08T10:55:36;16.90;99.90
14006;DHT22;7078;51.542;7.314;2023-08-08T10:58:09;16.90;99.90
14006;DHT22;7078;51.542;7.314;2023-08-08T11:00:36;16.70;99.90
14006;DHT22;7078;51.542;7.314;2023-08-08T11:03:05;16.50;99.90
14006;DHT22;7078;51.542;7.314;2023-08-08T11:05:32;16.50;99.90
14006;DHT22;7078;51.542;7.314;2023-08-08T11:08:00;16.40;99.90
14006;DHT22;7078;51.542;7.314;2023-08-08T11:10:26;16.30;99.90
14006;DHT22;7078;51.542;7.314;2023-08-08T11:13:04;16.40;99.90
14006;DHT22;7078;51.542;7.314;2023-08-08T11:15:31;16.40;99.90
14006;DHT22;7078;51.542;7.314;2023-08-08T11:18:01;16.50;99.90
14006;DHT22;7078;51.542;7.314;2023-08-08T11:20:31;16.60;99.90
14006;DHT22;7078;51.542;7.314;2023-08-08T11:22:58;16.60;99.90
14006;DHT22;7078;51.542;7.314;2023-08-08T11:25:28;16.70;99.90
14006;DHT22;7078;51.542;7.314;2023-08-08T11:27:55;16.70;99.90
14006;DHT22;7078;51.542;7.314;2023-08-08T11:30:21;16.80;99.90
14006;DHT22;7078;51.542;7.314;2023-08-08T11:32:48;17.00;99.90
14006;DHT22;7078;51.542;7.314;2023-08-08T11:35:24;17.30;99.90
14006;DHT22;7078;51.542;7.314;2023-08-08T11:37:51;17.50;99.90
14006;DHT22;7078;51.542;7.314;2023-08-08T11:40:18;17.60;99.90
14006;DHT22;7078;51.542;7.314;2023-08-08T11:42:44;17.60;99.90
14006;DHT22;7078;51.542;7.314;2023-08-08T11:45:11;17.50;99.90
14006;DHT22;7078;51.542;7.314;2023-08-08T11:47:38;17.40;99.90
14006;DHT22;7078;51.542;7.314;2023-08-08T11:50:06;17.20;99.90
14006;DHT22;7078;51.542;7.314;2023-08-08T11:52:32;17.10;99.90
14006;DHT22;7078;51.542;7.314;2023-08-08T11:55:01;17.10;99.90
14006;DHT22;7078;51.542;7.314;2023-08-08T11:57:27;17.10;99.90
14006;DHT22;7078;51.542;7.314;2023-08-08T11:59:56;17.40;99.90
14006;DHT22;7078;51.542;7.314;2023-08-08T12:02:23;17.70;99.90
14006;DHT22;7078;51.542;7.314;2023-08-08T12:04:49;18.10;99.90
14006;DHT22;7078;51.542;7.314;2023-08-08T12:07:16;18.50;99.90
14006;DHT22;7078;51.542;7.314;2023-08-08T12:09:42;18.90;99.90
14006;DHT22;7078;51.542;7.314;2023-08-08T12:12:08;18.90;99.90
14006;DHT22;7078;51.542;7.314;2023-08-08T12:14:38;18.70;99.90
14006;DHT22;7078;51.542;7.314;2023-08-08T12:17:04;18.60;99.90
14006;DHT22;7078;51.542;7.314;2023-08-08T12:19:30;18.80;99.90
14006;DHT22;7078;51.542;7.314;2023-08-08T12:21:55;19.00;99.90
14006;DHT22;7078;51.542;7.314;2023-08-08T12:24:21;19.10;99.90
14006;DHT22;7078;51.542;7.314;2023-08-08T12:26:46;19.30;99.90
14006;DHT22;7078;51.542;7.314;2023-08-08T12:29:15;19.50;99.90
14006;DHT22;7078;51.542;7.314;2023-08-08T12:31:41;19.30;96.80
14006;DHT22;7078;51.542;7.314;2023-08-08T12:34:07;19.40;99.90
14006;DHT22;7078;51.542;7.314;2023-08-08T12:36:33;19.80;97.70
14006;DHT22;7078;51.542;7.314;2023-08-08T12:38:58;20.00;94.40
14006;DHT22;7078;51.542;7.314;2023-08-08T12:41:24;20.00;92.20
14006;DHT22;7078;51.542;7.314;2023-08-08T12:43:50;20.00;91.30
14006;DHT22;7078;51.542;7.314;2023-08-08T12:46:16;20.20;92.30
14006;DHT22;7078;51.542;7.314;2023-08-08T12:48:42;20.30;90.70
14006;DHT22;7078;51.542;7.314;2023-08-08T12:51:08;20.20;90.40
14006;DHT22;7078;51.542;7.314;2023-08-08T12:53:34;20.00;91.70
14006;DHT22;7078;51.542;7.314;2023-08-08T12:56:00;20.30;92.00
14006;DHT22;7078;51.542;7.314;2023-08-08T12:58:26;20.40;92.50
14006;DHT22;7078;51.542;7.314;2023-08-08T13:00:51;20.30;92.20
14006;DHT22;7078;51.542;7.314;2023-08-08T13:03:17;20.10;93.30
14006;DHT22;7078;51.542;7.314;2023-08-08T13:05:42;19.80;93.40
14006;DHT22;7078;51.542;7.314;2023-08-08T13:08:08;19.70;95.70
14006;DHT22;7078;51.542;7.314;2023-08-08T13:10:35;19.60;98.10
14006;DHT22;7078;51.542;7.314;2023-08-08T13:13:01;19.80;97.50
14006;DHT22;7078;51.542;7.314;2023-08-08T13:15:26;20.10;97.50
14006;DHT22;7078;51.542;7.314;2023-08-08T13:17:52;20.20;93.20
14006;DHT22;7078;51.542;7.314;2023-08-08T13:20:18;20.30;93.50
14006;DHT22;7078;51.542;7.314;2023-08-08T13:22:44;20.40;92.60
14006;DHT22;7078;51.542;7.314;2023-08-08T13:25:09;20.40;93.40
14006;DHT22;7078;51.542;7.314;2023-08-08T13:27:35;20.10;92.70
14006;DHT22;7078;51.542;7.314;2023-08-08T13:30:01;19.90;94.00
14006;DHT22;7078;51.542;7.314;2023-08-08T13:32:27;19.70;96.10
14006;DHT22;7078;51.542;7.314;2023-08-08T13:34:53;19.60;97.20
14006;DHT22;7078;51.542;7.314;2023-08-08T13:37:19;19.30;99.90
14006;DHT22;7078;51.542;7.314;2023-08-08T13:39:44;19.20;99.90
14006;DHT22;7078;51.542;7.314;2023-08-08T13:42:10;19.10;99.90
14006;DHT22;7078;51.542;7.314;2023-08-08T13:44:36;19.00;99.90
14006;DHT22;7078;51.542;7.314;2023-08-08T13:47:01;19.00;99.90
14006;DHT22;7078;51.542;7.314;2023-08-08T13:49:27;19.00;99.90
14006;DHT22;7078;51.542;7.314;2023-08-08T13:51:54;19.10;99.90
14006;DHT22;7078;51.542;7.314;2023-08-08T13:54:20;19.40;99.90
14006;DHT22;7078;51.542;7.314;2023-08-08T13:56:46;19.40;98.30
14006;DHT22;7078;51.542;7.314;2023-08-08T13:59:11;19.50;95.90
14006;DHT22;7078;51.542;7.314;2023-08-08T14:01:37;19.50;96.60
14006;DHT22;7078;51.542;7.314;2023-08-08T14:04:03;19.50;96.80
14006;DHT22;7078;51.542;7.314;2023-08-08T14:06:29;19.50;95.60
14006;DHT22;7078;51.542;7.314;2023-08-08T14:08:56;19.50;96.70
14006;DHT22;7078;51.542;7.314;2023-08-08T14:11:22;19.70;96.70
14006;DHT22;7078;51.542;7.314;2023-08-08T14:13:47;19.70;96.00
14006;DHT22;7078;51.542;7.314;2023-08-08T14:16:13;19.50;95.40
14006;DHT22;7078;51.542;7.314;2023-08-08T14:18:39;19.60;95.30
14006;DHT22;7078;51.542;7.314;2023-08-08T14:21:05;19.50;95.50
14006;DHT22;7078;51.542;7.314;2023-08-08T14:23:31;19.40;97.10
14006;DHT22;7078;51.542;7.314;2023-08-08T14:25:58;19.30;97.30
14006;DHT22;7078;51.542;7.314;2023-08-08T14:28:23;19.20;98.80
14006;DHT22;7078;51.542;7.314;2023-08-08T14:30:49;19.20;99.90
14006;DHT22;7078;51.542;7.314;2023-08-08T14:33:15;19.10;99.70
14006;DHT22;7078;51.542;7.314;2023-08-08T14:35:41;19.00;99.90
14006;DHT22;7078;51.542;7.314;2023-08-08T14:38:07;18.90;99.90
14006;DHT22;7078;51.542;7.314;2023-08-08T14:40:32;18.80;99.90
14006;DHT22;7078;51.542;7.314;2023-08-08T14:43:00;18.80;95.70
14006;DHT22;7078;51.542;7.314;2023-08-08T14:45:26;19.00;97.30
14006;DHT22;7078;51.542;7.314;2023-08-08T14:47:51;19.40;96.40
14006;DHT22;7078;51.542;7.314;2023-08-08T14:50:17;19.80;94.10
14006;DHT22;7078;51.542;7.314;2023-08-08T14:52:43;20.20;95.20
14006;DHT22;7078;51.542;7.314;2023-08-08T14:55:08;20.40;94.30
14006;DHT22;7078;51.542;7.314;2023-08-08T14:57:34;20.40;92.00
14006;DHT22;7078;51.542;7.314;2023-08-08T15:00:00;20.60;93.40
14006;DHT22;7078;51.542;7.314;2023-08-08T15:02:26;21.10;91.00
14006;DHT22;7078;51.542;7.314;2023-08-08T15:04:52;21.20;90.70
14006;DHT22;7078;51.542;7.314;2023-08-08T15:07:18;21.20;89.10
14006;DHT22;7078;51.542;7.314;2023-08-08T15:09:44;21.20;86.90
14006;DHT22;7078;51.542;7.314;2023-08-08T15:12:10;21.00;82.90
14006;DHT22;7078;51.542;7.314;2023-08-08T15:14:35;21.00;80.40
14006;DHT22;7078;51.542;7.314;2023-08-08T15:17:01;21.00;79.70
14006;DHT22;7078;51.542;7.314;2023-08-08T15:19:26;21.00;81.90
14006;DHT22;7078;51.542;7.314;2023-08-08T15:21:53;20.90;81.00
14006;DHT22;7078;51.542;7.314;2023-08-08T15:24:19;20.60;83.00
14006;DHT22;7078;51.542;7.314;2023-08-08T15:26:44;20.80;85.30
14006;DHT22;7078;51.542;7.314;2023-08-08T15:29:10;21.00;85.10
14006;DHT22;7078;51.542;7.314;2023-08-08T15:31:36;20.90;82.00
14006;DHT22;7078;51.542;7.314;2023-08-08T15:34:02;21.00;86.10
14006;DHT22;7078;51.542;7.314;2023-08-08T15:36:28;21.10;85.40
14006;DHT22;7078;51.542;7.314;2023-08-08T15:38:53;21.40;82.10
14006;DHT22;7078;51.542;7.314;2023-08-08T15:41:19;21.30;81.90